createdAt,value
2019-05-26T00:01:31.221Z,99.90
2019-05-26T00:04:01.465Z,99.90
2019-05-26T00:06:31.660Z,99.90
2019-05-26T00:09:01.937Z,99.90
2019-05-26T00:11:32.282Z,99.90
2019-05-26T00:14:02.561Z,99.90
2019-05-26T00:16:32.846Z,99.90
2019-05-26T00:19:03.032Z,99.90
2019-05-26T00:21:33.233Z,99.90
2019-05-26T00:24:03.534Z,99.90
2019-05-26T00:26:33.713Z,99.90
2019-05-26T00:29:03.889Z,99.90
2019-05-26T00:31:34.530Z,99.90
2019-05-26T00:34:04.806Z,99.90
2019-05-26T00:36:35.129Z,99.90
2019-05-26T00:39:06.810Z,99.90
2019-05-26T00:41:37.125Z,99.90
2019-05-26T00:44:07.313Z,99.90
2019-05-26T00:46:37.564Z,99.90
2019-05-26T00:49:07.808Z,99.90
2019-05-26T00:51:38.108Z,99.90
2019-05-26T00:54:08.281Z,99.90
2019-05-26T00:56:38.542Z,99.90
2019-05-26T00:59:08.805Z,99.90
2019-05-26T01:01:39.112Z,99.90
2019-05-26T01:04:09.325Z,99.90
2019-05-26T01:06:39.529Z,99.90
2019-05-26T01:09:09.748Z,99.90
2019-05-26T01:11:39.946Z,99.90
2019-05-26T01:14:10.117Z,99.90
2019-05-26T01:16:40.395Z,99.90
2019-05-26T01:19:10.575Z,99.90
2019-05-26T01:21:40.875Z,99.90
2019-05-26T01:24:11.062Z,99.90
2019-05-26T01:26:41.257Z,99.90
2019-05-26T01:29:11.533Z,99.90
2019-05-26T01:31:41.801Z,99.90
2019-05-26T01:34:12.002Z,99.90
2019-05-26T01:36:42.272Z,99.90
2019-05-26T01:39:12.502Z,99.90
2019-05-26T01:41:42.769Z,99.90
2019-05-26T01:44:12.972Z,99.90
2019-05-26T01:46:43.141Z,99.90
2019-05-26T01:49:13.383Z,99.90
2019-05-26T01:51:43.609Z,99.90
2019-05-26T01:54:13.798Z,99.90
2019-05-26T01:56:43.966Z,99.90
2019-05-26T01:59:14.305Z,99.90
2019-05-26T02:01:44.574Z,99.90
2019-05-26T02:04:14.849Z,99.90
2019-05-26T02:06:45.110Z,99.90
2019-05-26T02:09:15.328Z,99.90
2019-05-26T02:11:46.518Z,99.90
2019-05-26T02:14:16.842Z,99.90
2019-05-26T02:16:47.097Z,99.90
2019-05-26T02:19:17.294Z,99.90
2019-05-26T02:21:47.498Z,99.90
2019-05-26T02:24:17.698Z,99.90
2019-05-26T02:26:47.885Z,99.90
2019-05-26T02:29:18.091Z,99.90
2019-05-26T02:31:48.322Z,99.90
2019-05-26T02:34:18.529Z,99.90
2019-05-26T02:36:48.726Z,99.90
2019-05-26T02:39:18.910Z,99.90
2019-05-26T02:41:49.180Z,99.90
2019-05-26T02:44:19.394Z,99.90
2019-05-26T02:46:50.138Z,99.90
2019-05-26T02:49:20.340Z,99.90
2019-05-26T02:51:50.545Z,99.90
2019-05-26T02:54:20.747Z,99.90
2019-05-26T02:56:50.993Z,99.90
2019-05-26T02:59:21.412Z,99.90
2019-05-26T03:02:03.179Z,99.90
2019-05-26T03:04:23.714Z,99.90
2019-05-26T03:06:54.813Z,99.90
2019-05-26T03:09:25.976Z,99.90
2019-05-26T03:11:58.907Z,99.90
2019-05-26T03:14:31.956Z,99.90
2019-05-26T03:17:03.181Z,99.90
2019-05-26T03:19:35.463Z,99.90
2019-05-26T03:22:05.852Z,99.90
2019-05-26T03:24:37.559Z,99.90
2019-05-26T03:27:07.932Z,99.90
2019-05-26T03:29:38.107Z,99.90
2019-05-26T03:32:08.389Z,99.90
2019-05-26T03:34:38.680Z,99.90
2019-05-26T03:37:08.943Z,99.90
2019-05-26T03:39:45.222Z,99.90
2019-05-26T03:42:11.120Z,99.90
2019-05-26T03:44:41.395Z,99.90
2019-05-26T03:47:16.426Z,99.90
2019-05-26T03:49:43.640Z,99.90
2019-05-26T03:52:13.860Z,99.90
2019-05-26T03:54:44.832Z,99.90
2019-05-26T03:57:15.021Z,99.90
2019-05-26T03:59:45.312Z,99.90
2019-05-26T04:02:15.593Z,99.90
2019-05-26T04:04:45.841Z,99.90
2019-05-26T04:07:16.035Z,99.90
2019-05-26T04:10:03.025Z,99.90
2019-05-26T04:12:18.158Z,99.90
2019-05-26T04:14:48.415Z,99.90
2019-05-26T04:17:18.682Z,99.90
2019-05-26T04:19:48.958Z,99.90
2019-05-26T04:22:19.160Z,99.90
2019-05-26T04:24:49.415Z,99.90
2019-05-26T04:27:20.144Z,99.90
2019-05-26T04:29:50.407Z,99.90
2019-05-26T04:32:20.739Z,99.90
2019-05-26T04:34:51.010Z,99.90
2019-05-26T04:37:21.288Z,99.90
2019-05-26T04:39:51.470Z,99.90
2019-05-26T04:42:21.805Z,99.90
2019-05-26T04:44:52.053Z,99.90
2019-05-26T04:47:22.269Z,99.90
2019-05-26T04:49:52.560Z,99.90
2019-05-26T04:52:22.891Z,99.90
2019-05-26T04:54:53.172Z,99.90
2019-05-26T04:57:23.462Z,99.90
2019-05-26T04:59:53.712Z,99.90
2019-05-26T05:02:23.960Z,99.90
2019-05-26T05:04:54.221Z,99.90
2019-05-26T05:07:28.134Z,99.90
2019-05-26T05:09:56.494Z,99.90
2019-05-26T05:12:26.737Z,99.90
2019-05-26T05:14:56.997Z,99.90
2019-05-26T05:17:27.298Z,99.90
2019-05-26T05:19:57.756Z,99.90
2019-05-26T05:22:28.072Z,99.90
2019-05-26T05:24:58.376Z,99.90
2019-05-26T05:27:28.782Z,99.90
2019-05-26T05:29:58.983Z,99.90
2019-05-26T05:32:32.742Z,99.90
2019-05-26T05:35:01.195Z,99.90
2019-05-26T05:37:31.500Z,99.90
2019-05-26T05:40:01.699Z,99.90
2019-05-26T05:42:31.902Z,99.90
2019-05-26T05:45:02.206Z,99.90
2019-05-26T05:47:32.525Z,99.90
2019-05-26T05:50:02.786Z,99.90
2019-05-26T05:52:33.081Z,99.90
2019-05-26T05:55:03.273Z,99.90
2019-05-26T05:57:33.574Z,99.90
2019-05-26T06:00:04.693Z,99.90
2019-05-26T06:02:34.998Z,99.90
2019-05-26T06:05:05.478Z,99.90
2019-05-26T06:07:35.701Z,99.90
2019-05-26T06:10:07.242Z,99.90
2019-05-26T06:12:37.512Z,99.90
2019-05-26T06:15:10.013Z,99.90
2019-05-26T06:17:40.299Z,99.90
2019-05-26T06:20:10.902Z,99.90
2019-05-26T06:22:41.190Z,99.90
2019-05-26T06:25:11.491Z,99.90
2019-05-26T06:27:41.783Z,99.90
2019-05-26T06:30:12.347Z,99.90
2019-05-26T06:32:42.613Z,99.90
2019-05-26T06:35:13.197Z,99.60
2019-05-26T06:37:43.441Z,99.10
2019-05-26T06:40:14.047Z,98.40
2019-05-26T06:42:44.467Z,98.00
2019-05-26T06:45:16.339Z,97.30
2019-05-26T06:47:46.590Z,96.90
2019-05-26T06:50:18.296Z,96.20
2019-05-26T06:52:48.529Z,96.00
2019-05-26T06:55:18.885Z,96.20
2019-05-26T06:57:49.077Z,95.70
2019-05-26T07:00:19.362Z,94.80
2019-05-26T07:02:50.844Z,94.50
2019-05-26T07:05:21.077Z,94.40
2019-05-26T07:07:51.350Z,94.40
2019-05-26T07:10:21.536Z,94.20
2019-05-26T07:12:51.873Z,94.50
2019-05-26T07:15:25.165Z,94.20
2019-05-26T07:17:55.493Z,93.20
2019-05-26T07:20:25.765Z,93.00
2019-05-26T07:22:55.982Z,92.90
2019-05-26T07:25:26.284Z,92.30
2019-05-26T07:27:56.581Z,91.70
2019-05-26T07:30:26.841Z,92.10
2019-05-26T07:32:57.164Z,92.10
2019-05-26T07:35:27.449Z,91.70
2019-05-26T07:37:57.692Z,91.40
2019-05-26T07:40:27.977Z,90.90
2019-05-26T07:42:58.357Z,90.50
2019-05-26T07:45:28.709Z,89.90
2019-05-26T07:47:59.093Z,90.00
2019-05-26T07:50:29.398Z,89.60
2019-05-26T07:52:59.690Z,89.30
2019-05-26T07:55:29.995Z,88.70
2019-05-26T07:58:00.297Z,90.00
2019-05-26T08:00:30.748Z,90.20
2019-05-26T08:03:01.090Z,90.10
2019-05-26T08:05:31.399Z,89.70
2019-05-26T08:08:12.283Z,88.70
2019-05-26T08:10:33.703Z,87.40
2019-05-26T08:13:04.008Z,86.90
2019-05-26T08:15:34.310Z,87.40
2019-05-26T08:18:04.772Z,86.60
2019-05-26T08:20:35.023Z,86.30
2019-05-26T08:23:05.381Z,86.10
2019-05-26T08:25:36.061Z,85.40
2019-05-26T08:28:06.387Z,85.70
2019-05-26T08:30:36.746Z,85.30
2019-05-26T08:33:07.126Z,85.70
2019-05-26T08:35:37.419Z,88.30
2019-05-26T08:38:07.645Z,89.60
2019-05-26T08:40:37.934Z,90.50
2019-05-26T08:43:08.198Z,90.80
2019-05-26T08:45:38.570Z,91.50
2019-05-26T08:48:08.853Z,91.60
2019-05-26T08:50:39.209Z,92.00
2019-05-26T08:53:09.549Z,92.30
2019-05-26T08:55:39.882Z,93.10
2019-05-26T08:58:10.166Z,93.50
2019-05-26T09:00:40.457Z,93.70
2019-05-26T09:03:10.800Z,93.60
2019-05-26T09:05:40.989Z,93.10
2019-05-26T09:08:11.234Z,93.10
2019-05-26T09:10:41.541Z,93.40
2019-05-26T09:13:11.840Z,93.20
2019-05-26T09:15:42.885Z,92.50
2019-05-26T09:18:13.240Z,93.30
2019-05-26T09:20:43.572Z,93.40
2019-05-26T09:23:13.877Z,93.70
2019-05-26T09:25:46.478Z,94.10
2019-05-26T09:28:16.221Z,94.60
2019-05-26T09:30:46.531Z,94.70
2019-05-26T09:33:16.836Z,94.80
2019-05-26T09:35:47.041Z,94.10
2019-05-26T09:38:17.354Z,94.10
2019-05-26T09:40:47.733Z,93.90
2019-05-26T09:43:18.054Z,94.00
2019-05-26T09:46:12.588Z,93.70
2019-05-26T09:48:49.623Z,93.40
2019-05-26T09:51:19.991Z,93.20
2019-05-26T09:54:01.239Z,92.90
2019-05-26T09:56:22.257Z,93.20
2019-05-26T09:58:52.536Z,93.00
2019-05-26T10:01:22.788Z,93.30
2019-05-26T10:03:53.071Z,93.60
2019-05-26T10:06:23.341Z,93.70
2019-05-26T10:08:53.652Z,93.50
2019-05-26T10:11:23.884Z,93.30
2019-05-26T10:13:54.220Z,93.10
2019-05-26T10:16:24.500Z,92.50
2019-05-26T10:18:54.804Z,92.10
2019-05-26T10:21:25.100Z,92.60
2019-05-26T10:23:55.416Z,92.80
2019-05-26T10:26:25.731Z,93.20
2019-05-26T10:28:56.036Z,92.80
2019-05-26T10:31:26.362Z,93.30
2019-05-26T10:33:56.692Z,93.00
2019-05-26T10:36:26.932Z,93.20
2019-05-26T10:38:57.254Z,93.20
2019-05-26T10:41:27.565Z,93.00
2019-05-26T10:43:57.886Z,93.20
2019-05-26T10:46:28.212Z,92.60
2019-05-26T10:48:58.402Z,92.20
2019-05-26T10:51:28.712Z,92.30
2019-05-26T10:53:59.050Z,92.60
2019-05-26T10:56:29.285Z,92.80
2019-05-26T10:58:59.565Z,93.00
2019-05-26T11:01:29.887Z,93.10
2019-05-26T11:04:00.166Z,93.20
2019-05-26T11:06:30.439Z,93.00
2019-05-26T11:09:00.800Z,93.30
2019-05-26T11:11:31.125Z,93.40
2019-05-26T11:14:03.189Z,93.40
2019-05-26T11:16:33.348Z,93.60
2019-05-26T11:19:03.557Z,93.70
2019-05-26T11:21:33.930Z,93.60
2019-05-26T11:24:04.517Z,93.60
2019-05-26T11:26:34.825Z,93.50
2019-05-26T11:29:05.121Z,93.20
2019-05-26T11:31:35.416Z,92.80
2019-05-26T11:34:05.792Z,92.80
2019-05-26T11:36:36.069Z,92.90
2019-05-26T11:39:07.521Z,93.30
2019-05-26T11:41:37.807Z,93.30
2019-05-26T11:44:17.483Z,93.30
2019-05-26T11:46:40.084Z,93.40
2019-05-26T11:49:10.388Z,93.30
2019-05-26T11:51:40.731Z,93.30
2019-05-26T11:54:11.020Z,93.10
2019-05-26T11:56:41.329Z,92.80
2019-05-26T11:59:11.553Z,92.40
2019-05-26T12:01:41.870Z,92.20
2019-05-26T12:04:12.161Z,91.80
2019-05-26T12:06:42.505Z,91.60
2019-05-26T12:09:13.661Z,92.50
2019-05-26T12:11:43.952Z,91.90
2019-05-26T12:14:14.220Z,92.30
2019-05-26T12:16:44.610Z,92.20
2019-05-26T12:19:14.935Z,92.30
2019-05-26T12:21:45.241Z,92.40
2019-05-26T12:24:15.568Z,92.10
2019-05-26T12:26:45.897Z,92.10
2019-05-26T12:29:16.240Z,92.60
2019-05-26T12:31:46.603Z,93.00
2019-05-26T12:34:16.916Z,93.00
2019-05-26T12:36:47.140Z,92.60
2019-05-26T12:39:17.510Z,92.20
2019-05-26T12:41:47.829Z,91.80
2019-05-26T12:44:18.104Z,91.40
2019-05-26T12:46:48.405Z,91.00
2019-05-26T12:49:18.757Z,91.00
2019-05-26T12:51:49.167Z,90.90
2019-05-26T12:54:19.495Z,91.20
2019-05-26T12:56:49.834Z,91.30
2019-05-26T12:59:20.152Z,91.40
2019-05-26T13:01:50.515Z,91.60
2019-05-26T13:04:20.895Z,91.80
2019-05-26T13:06:51.289Z,91.80
2019-05-26T13:09:21.565Z,91.70
2019-05-26T13:11:51.895Z,91.70
2019-05-26T13:14:22.203Z,92.00
2019-05-26T13:16:52.473Z,91.80
2019-05-26T13:19:22.713Z,91.80
2019-05-26T13:21:53.278Z,91.70
2019-05-26T13:24:23.633Z,91.30
2019-05-26T13:26:53.964Z,91.20
2019-05-26T13:29:25.919Z,90.80
2019-05-26T13:31:56.513Z,91.00
2019-05-26T13:34:26.819Z,90.80
2019-05-26T13:36:57.118Z,90.80
2019-05-26T13:39:27.465Z,91.10
2019-05-26T13:41:57.763Z,91.10
2019-05-26T13:44:28.121Z,91.00
2019-05-26T13:46:58.420Z,90.80
2019-05-26T13:49:28.821Z,90.60
2019-05-26T13:52:00.585Z,90.40
2019-05-26T13:54:30.965Z,90.10
2019-05-26T13:57:02.057Z,90.00
2019-05-26T13:59:32.369Z,90.30
2019-05-26T14:02:02.667Z,90.10
2019-05-26T14:04:33.014Z,90.60
2019-05-26T14:07:03.270Z,90.50
2019-05-26T14:09:33.492Z,90.60
2019-05-26T14:12:03.910Z,90.80
2019-05-26T14:14:34.805Z,91.00
2019-05-26T14:17:05.527Z,91.10
2019-05-26T14:19:37.892Z,90.90
2019-05-26T14:22:08.961Z,90.40
2019-05-26T14:24:52.891Z,90.40
2019-05-26T14:27:11.482Z,90.60
2019-05-26T14:29:41.885Z,90.50
2019-05-26T14:32:12.117Z,90.60
2019-05-26T14:34:42.434Z,90.20
2019-05-26T14:37:12.760Z,90.10
2019-05-26T14:39:43.029Z,90.40
2019-05-26T14:42:13.275Z,90.30
2019-05-26T14:44:43.876Z,90.20
2019-05-26T14:47:14.187Z,90.40
2019-05-26T14:49:44.484Z,90.60
2019-05-26T14:52:14.723Z,90.70
2019-05-26T14:54:45.026Z,90.50
2019-05-26T14:57:15.274Z,90.30
2019-05-26T14:59:45.480Z,89.00
2019-05-26T15:02:15.857Z,88.50
2019-05-26T15:04:46.153Z,88.60
2019-05-26T15:07:16.522Z,88.90
2019-05-26T15:09:46.794Z,89.00
2019-05-26T15:12:17.165Z,89.70
2019-05-26T15:14:47.483Z,90.00
2019-05-26T15:17:17.767Z,90.10
2019-05-26T15:19:48.057Z,90.30
2019-05-26T15:22:18.405Z,89.70
2019-05-26T15:24:48.671Z,88.80
2019-05-26T15:27:18.893Z,88.40
2019-05-26T15:29:49.180Z,88.30
2019-05-26T15:32:19.398Z,89.80
2019-05-26T15:34:49.761Z,89.70
2019-05-26T15:37:20.063Z,88.30
2019-05-26T15:39:50.480Z,88.50
2019-05-26T15:42:21.294Z,88.80
2019-05-26T15:44:51.652Z,88.70
2019-05-26T15:47:21.868Z,88.60
2019-05-26T15:49:52.162Z,88.40
2019-05-26T15:52:22.446Z,87.90
2019-05-26T15:54:52.746Z,88.20
2019-05-26T15:57:23.070Z,88.00
2019-05-26T15:59:54.646Z,87.90
2019-05-26T16:02:24.972Z,88.60
2019-05-26T16:04:58.690Z,88.20
2019-05-26T16:07:27.225Z,88.20
2019-05-26T16:09:57.607Z,87.90
2019-05-26T16:12:27.917Z,87.70
2019-05-26T16:14:58.230Z,88.10
2019-05-26T16:17:28.567Z,87.50
2019-05-26T16:19:58.841Z,87.50
2019-05-26T16:22:29.052Z,88.00
2019-05-26T16:24:59.369Z,87.30
2019-05-26T16:27:29.684Z,87.80
2019-05-26T16:29:59.916Z,87.70
2019-05-26T16:32:30.238Z,88.50
2019-05-26T16:35:00.485Z,89.00
2019-05-26T16:37:30.804Z,88.60
2019-05-26T16:40:01.149Z,88.00
2019-05-26T16:42:31.451Z,87.70
2019-05-26T16:45:01.780Z,87.40
2019-05-26T16:47:32.069Z,87.20
2019-05-26T16:50:02.366Z,87.40
2019-05-26T16:52:32.660Z,87.20
2019-05-26T16:55:02.953Z,86.70
2019-05-26T16:57:33.230Z,86.00
2019-05-26T17:00:03.655Z,86.00
2019-05-26T17:02:33.995Z,86.00
2019-05-26T17:05:04.596Z,86.30
2019-05-26T17:07:34.932Z,86.50
2019-05-26T17:10:05.972Z,86.50
2019-05-26T17:12:36.401Z,86.50
2019-05-26T17:15:07.202Z,86.40
2019-05-26T17:17:37.547Z,86.30
2019-05-26T17:20:08.523Z,86.70
2019-05-26T17:22:39.260Z,86.40
2019-05-26T17:25:10.005Z,87.00
2019-05-26T17:27:40.308Z,86.50
2019-05-26T17:30:10.811Z,85.20
2019-05-26T17:32:41.174Z,84.70
2019-05-26T17:35:11.588Z,84.40
2019-05-26T17:37:41.942Z,84.90
2019-05-26T17:40:12.356Z,84.50
2019-05-26T17:42:42.683Z,84.60
2019-05-26T17:45:13.493Z,83.80
2019-05-26T17:47:43.813Z,82.90
2019-05-26T17:50:14.958Z,82.30
2019-05-26T17:52:45.350Z,81.80
2019-05-26T17:55:15.895Z,81.10
2019-05-26T17:57:46.325Z,81.40
2019-05-26T18:00:16.786Z,80.80
2019-05-26T18:02:47.552Z,80.70
2019-05-26T18:05:18.076Z,81.20
2019-05-26T18:07:48.404Z,80.80
2019-05-26T18:10:18.849Z,81.40
2019-05-26T18:12:49.248Z,81.70
2019-05-26T18:15:19.611Z,80.70
2019-05-26T18:17:50.026Z,81.10
2019-05-26T18:20:20.446Z,81.20
2019-05-26T18:22:50.924Z,81.40
2019-05-26T18:25:21.254Z,81.70
2019-05-26T18:27:51.549Z,81.40
2019-05-26T18:30:21.944Z,81.90
2019-05-26T18:32:52.580Z,82.70
2019-05-26T18:35:23.085Z,81.90
2019-05-26T18:37:53.758Z,82.30
2019-05-26T18:40:24.034Z,82.10
2019-05-26T18:42:54.418Z,82.50
2019-05-26T18:45:24.793Z,82.80
2019-05-26T18:48:02.793Z,83.70
2019-05-26T18:50:27.748Z,82.90
2019-05-26T18:52:58.126Z,84.00
2019-05-26T18:55:28.691Z,84.10
2019-05-26T18:57:59.104Z,84.50
2019-05-26T19:00:30.804Z,85.80
2019-05-26T19:03:01.877Z,86.10
2019-05-26T19:05:36.060Z,86.20
2019-05-26T19:08:04.479Z,85.60
2019-05-26T19:10:34.889Z,85.90
2019-05-26T19:13:05.158Z,86.00
2019-05-26T19:15:35.488Z,86.80
2019-05-26T19:18:18.842Z,86.10
2019-05-26T19:20:37.840Z,87.30
2019-05-26T19:23:08.163Z,88.10
2019-05-26T19:25:38.575Z,87.90
2019-05-26T19:28:08.987Z,89.70
2019-05-26T19:30:39.352Z,89.40
2019-05-26T19:33:09.740Z,90.20
2019-05-26T19:35:40.031Z,90.20
2019-05-26T19:38:10.475Z,90.30
2019-05-26T19:40:40.733Z,90.60
2019-05-26T19:43:11.087Z,90.80
2019-05-26T19:45:41.411Z,91.20
2019-05-26T19:48:11.780Z,91.30
2019-05-26T19:50:42.131Z,91.30
2019-05-26T19:53:12.610Z,91.30
2019-05-26T19:55:43.021Z,91.30
2019-05-26T19:58:13.386Z,91.50
2019-05-26T20:00:43.771Z,91.60
2019-05-26T20:03:14.121Z,91.70
2019-05-26T20:05:44.625Z,91.80
2019-05-26T20:08:14.950Z,92.00
2019-05-26T20:10:45.430Z,92.10
2019-05-26T20:13:15.743Z,92.30
2019-05-26T20:15:46.084Z,92.20
2019-05-26T20:18:16.422Z,92.20
2019-05-26T20:20:46.781Z,92.60
2019-05-26T20:23:17.119Z,92.60
2019-05-26T20:25:47.478Z,92.70
2019-05-26T20:28:17.802Z,92.80
2019-05-26T20:30:48.111Z,92.90
2019-05-26T20:33:18.507Z,93.00
2019-05-26T20:35:48.902Z,93.40
2019-05-26T20:38:19.276Z,93.60
2019-05-26T20:40:49.655Z,93.70
2019-05-26T20:43:19.978Z,94.10
2019-05-26T20:45:50.308Z,94.50
2019-05-26T20:48:21.141Z,94.40
2019-05-26T20:50:51.480Z,94.30
2019-05-26T20:53:21.787Z,94.50
2019-05-26T20:55:52.102Z,94.60
2019-05-26T20:58:22.606Z,94.80
2019-05-26T21:00:53.446Z,95.00
2019-05-26T21:03:23.878Z,95.10
2019-05-26T21:05:54.229Z,95.40
2019-05-26T21:08:24.561Z,95.50
2019-05-26T21:10:54.943Z,95.60
2019-05-26T21:13:25.249Z,95.80
2019-05-26T21:15:55.605Z,95.90
2019-05-26T21:18:25.917Z,96.00
2019-05-26T21:20:56.320Z,96.10
2019-05-26T21:23:28.107Z,96.30
2019-05-26T21:25:58.462Z,96.20
2019-05-26T21:28:28.840Z,96.30
2019-05-26T21:30:59.230Z,96.40
2019-05-26T21:33:29.550Z,96.50
2019-05-26T21:35:59.858Z,96.60
2019-05-26T21:38:30.232Z,96.90
2019-05-26T21:41:00.550Z,96.90
2019-05-26T21:43:30.906Z,97.10
2019-05-26T21:46:01.292Z,97.10
2019-05-26T21:48:34.600Z,97.30
2019-05-26T21:51:03.664Z,97.40
2019-05-26T21:53:33.990Z,97.40
2019-05-26T21:56:04.391Z,97.40
2019-05-26T21:58:34.661Z,97.50
2019-05-26T22:01:05.248Z,97.60
2019-05-26T22:03:35.605Z,97.70
2019-05-26T22:06:05.924Z,97.90
2019-05-26T22:08:36.163Z,98.10
2019-05-26T22:11:06.496Z,98.20
2019-05-26T22:13:36.928Z,98.20
2019-05-26T22:16:07.241Z,98.30
2019-05-26T22:18:37.497Z,98.40
2019-05-26T22:21:07.860Z,98.50
2019-05-26T22:23:38.117Z,98.60
2019-05-26T22:26:08.421Z,98.60
2019-05-26T22:28:38.678Z,98.60
2019-05-26T22:31:08.961Z,98.50
2019-05-26T22:33:39.295Z,98.60
2019-05-26T22:36:09.546Z,98.70
2019-05-26T22:38:39.896Z,98.70
2019-05-26T22:41:10.102Z,98.70
2019-05-26T22:43:40.411Z,98.50
2019-05-26T22:46:10.685Z,98.30
2019-05-26T22:48:40.980Z,98.40
2019-05-26T22:51:11.288Z,98.30
2019-05-26T22:53:41.585Z,98.40
2019-05-26T22:56:11.767Z,98.40
2019-05-26T22:58:42.191Z,98.40
2019-05-26T23:01:12.386Z,98.60
2019-05-26T23:03:42.759Z,99.00
2019-05-26T23:06:12.990Z,98.80
2019-05-26T23:08:43.346Z,98.80
2019-05-26T23:11:13.622Z,98.90
2019-05-26T23:13:43.824Z,98.90
2019-05-26T23:16:14.062Z,98.80
2019-05-26T23:18:44.337Z,98.80
2019-05-26T23:21:14.679Z,98.90
2019-05-26T23:23:45.086Z,99.00
2019-05-26T23:26:15.631Z,98.90
2019-05-26T23:28:45.910Z,98.90
2019-05-26T23:31:16.218Z,99.10
2019-05-26T23:33:46.435Z,99.30
2019-05-26T23:36:16.641Z,99.40
2019-05-26T23:38:46.926Z,99.70
2019-05-26T23:41:17.229Z,99.60
2019-05-26T23:43:47.636Z,99.60
2019-05-26T23:46:17.893Z,99.50
2019-05-26T23:48:48.121Z,99.50
2019-05-26T23:51:18.415Z,99.50
2019-05-26T23:53:48.727Z,99.60
2019-05-26T23:56:18.935Z,99.40
2019-05-26T23:58:49.160Z,99.50
